createdAt,value
2022-11-19T00:03:52.129Z,25.88
2022-11-19T00:08:55.046Z,22.77
2022-11-19T00:13:56.881Z,28.02
2022-11-19T00:18:58.756Z,24.27
2022-11-19T00:24:00.573Z,24.95
2022-11-19T00:29:02.399Z,27.45
2022-11-19T00:34:04.392Z,21.70
2022-11-19T00:39:06.337Z,21.92
2022-11-19T00:44:08.281Z,20.92
2022-11-19T00:49:10.068Z,20.90
2022-11-19T00:54:11.897Z,24.33
2022-11-19T00:59:14.122Z,19.52
2022-11-19T01:04:15.963Z,20.63
2022-11-19T01:09:18.365Z,22.83
2022-11-19T01:14:20.229Z,18.23
2022-11-19T01:19:22.523Z,20.95
2022-11-19T01:24:24.505Z,17.98
2022-11-19T01:29:26.493Z,21.98
2022-11-19T01:34:28.405Z,19.50
2022-11-19T01:39:30.318Z,21.55
2022-11-19T01:45:00.165Z,17.77
2022-11-19T01:50:02.604Z,18.10
2022-11-19T01:55:04.907Z,19.08
2022-11-19T02:00:08.237Z,24.65
2022-11-19T02:05:10.125Z,22.10
2022-11-19T02:10:12.469Z,21.40
2022-11-19T02:15:14.280Z,25.10
2022-11-19T02:20:37.816Z,26.13
2022-11-19T02:25:42.332Z,22.90
2022-11-19T02:30:49.718Z,24.10
2022-11-19T02:36:00.100Z,21.00
2022-11-19T02:41:28.607Z,20.98
2022-11-19T02:46:30.568Z,24.98
2022-11-19T02:51:32.400Z,22.42
2022-11-19T02:56:53.644Z,23.58
2022-11-19T03:02:14.723Z,25.77
2022-11-19T03:07:19.041Z,23.55
2022-11-19T03:12:26.793Z,26.08
2022-11-19T03:17:44.909Z,25.92
2022-11-19T03:22:55.461Z,26.25
2022-11-19T03:28:03.581Z,34.33
2022-11-19T03:33:24.528Z,23.45
2022-11-19T03:38:34.065Z,24.42
2022-11-19T03:43:39.780Z,28.13
2022-11-19T03:48:45.214Z,20.45
2022-11-19T03:53:48.375Z,23.80
2022-11-19T03:58:50.287Z,21.77
2022-11-19T04:04:11.018Z,22.52
2022-11-19T04:09:12.866Z,25.23
2022-11-19T04:14:14.783Z,19.48
2022-11-19T04:19:18.285Z,23.35
2022-11-19T04:24:20.399Z,26.25
2022-11-19T04:29:22.399Z,30.27
2022-11-19T04:34:24.261Z,24.55
2022-11-19T04:39:26.871Z,25.40
2022-11-19T04:44:29.097Z,26.95
2022-11-19T04:49:30.918Z,29.95
2022-11-19T04:54:32.726Z,27.23
2022-11-19T04:59:34.555Z,24.13
2022-11-19T05:04:36.414Z,25.65
2022-11-19T05:09:38.228Z,25.02
2022-11-19T05:14:40.186Z,25.77
2022-11-19T05:19:42.040Z,26.73
2022-11-19T05:24:43.852Z,26.02
2022-11-19T05:29:45.701Z,25.65
2022-11-19T05:34:48.571Z,29.75
2022-11-19T05:39:50.464Z,28.95
2022-11-19T05:44:52.311Z,20.52
2022-11-19T05:49:54.137Z,24.27
2022-11-19T05:54:55.956Z,30.65
2022-11-19T05:59:57.789Z,28.73
2022-11-19T06:04:59.609Z,25.88
2022-11-19T06:10:01.483Z,37.92
2022-11-19T06:15:03.642Z,23.77
2022-11-19T06:20:08.847Z,28.88
2022-11-19T06:25:10.690Z,23.52
2022-11-19T06:30:13.501Z,28.63
2022-11-19T06:35:15.411Z,26.45
2022-11-19T06:40:17.345Z,29.30
2022-11-19T06:45:19.178Z,29.48
2022-11-19T06:50:20.987Z,26.25
2022-11-19T06:55:23.281Z,31.35
2022-11-19T07:00:25.097Z,37.65
2022-11-19T07:05:26.943Z,40.00
2022-11-19T07:10:28.799Z,37.70
2022-11-19T07:15:30.731Z,33.83
2022-11-19T07:20:32.670Z,32.53
2022-11-19T07:25:34.478Z,33.00
2022-11-19T07:30:36.465Z,35.60
2022-11-19T07:35:38.295Z,30.58
2022-11-19T07:40:40.166Z,35.03
2022-11-19T07:45:41.992Z,36.33
2022-11-19T07:50:55.144Z,31.00
2022-11-19T07:56:01.363Z,40.88
2022-11-19T08:01:11.035Z,35.08
2022-11-19T08:06:15.522Z,31.38
2022-11-19T08:11:18.437Z,33.50
2022-11-19T08:16:39.096Z,37.95
2022-11-19T08:21:43.195Z,36.63
2022-11-19T08:26:45.634Z,32.88
2022-11-19T08:31:48.342Z,40.95
2022-11-19T08:36:50.247Z,28.75
2022-11-19T08:42:10.528Z,29.88
2022-11-19T08:47:12.442Z,33.13
2022-11-19T08:52:14.729Z,26.15
2022-11-19T08:57:16.604Z,27.75
2022-11-19T09:02:18.431Z,27.67
2022-11-19T09:07:20.349Z,26.63
2022-11-19T09:12:22.312Z,34.05
2022-11-19T09:17:24.437Z,41.78
2022-11-19T09:22:26.450Z,28.45
2022-11-19T09:27:28.286Z,32.90
2022-11-19T09:32:30.199Z,33.08
2022-11-19T09:37:34.221Z,27.63
2022-11-19T09:42:49.931Z,31.23
2022-11-19T09:48:35.766Z,32.72
2022-11-19T09:54:01.652Z,27.63
2022-11-19T09:59:25.559Z,33.50
2022-11-19T10:04:31.712Z,26.70
2022-11-19T10:09:33.481Z,25.65
2022-11-19T10:14:47.326Z,24.40
2022-11-19T10:20:04.290Z,18.67
2022-11-19T10:25:16.546Z,16.42
2022-11-19T10:30:21.596Z,27.02
2022-11-19T10:35:30.074Z,24.98
2022-11-19T10:40:57.685Z,20.42
2022-11-19T10:46:02.884Z,21.00
2022-11-19T10:51:19.389Z,17.00
2022-11-19T10:56:42.300Z,16.05
2022-11-19T11:01:47.457Z,14.02
2022-11-19T11:06:51.240Z,15.27
2022-11-19T11:12:11.800Z,13.07
2022-11-19T11:17:28.848Z,11.13
2022-11-19T11:22:31.198Z,10.18
2022-11-19T11:27:35.664Z,10.48
2022-11-19T11:32:38.737Z,10.48
2022-11-19T11:37:40.641Z,14.75
2022-11-19T11:42:42.547Z,13.63
2022-11-19T11:47:44.406Z,11.38
2022-11-19T11:52:52.070Z,9.23
2022-11-19T11:58:06.266Z,13.57
2022-11-19T12:03:14.010Z,6.25
2022-11-19T12:08:37.022Z,6.72
2022-11-19T12:13:50.717Z,8.05
2022-11-19T12:18:55.628Z,10.75
2022-11-19T12:24:12.658Z,9.23
2022-11-19T12:29:17.762Z,9.60
2022-11-19T12:34:50.024Z,8.93
2022-11-19T12:40:19.274Z,8.32
2022-11-19T12:45:42.186Z,9.15
2022-11-19T12:51:02.112Z,10.52
2022-11-19T12:56:22.877Z,8.83
2022-11-19T13:06:49.386Z,8.65
2022-11-19T13:12:02.429Z,10.65
2022-11-19T13:17:11.357Z,8.10
2022-11-19T13:22:19.150Z,8.10
2022-11-19T13:27:23.850Z,7.63
2022-11-19T13:32:48.710Z,7.57
2022-11-19T13:38:02.791Z,9.27
2022-11-19T13:43:32.583Z,8.15
2022-11-19T13:48:43.260Z,6.83
2022-11-19T13:53:46.438Z,10.32
2022-11-19T13:58:52.344Z,8.57
2022-11-19T14:04:03.224Z,9.15
2022-11-19T14:09:11.004Z,7.97
2022-11-19T14:14:40.630Z,8.65
2022-11-19T14:20:13.870Z,7.75
2022-11-19T14:26:05.020Z,7.53
2022-11-19T14:31:07.200Z,9.57
2022-11-19T14:36:31.807Z,13.57
2022-11-19T14:41:34.976Z,9.93
2022-11-19T14:46:42.011Z,9.07
2022-11-19T14:51:43.936Z,10.90
2022-11-19T14:56:48.629Z,13.30
2022-11-19T15:02:12.070Z,12.98
2022-11-19T15:07:39.407Z,9.85
2022-11-19T15:12:41.265Z,20.67
2022-11-19T15:17:43.928Z,15.52
2022-11-19T15:23:25.077Z,16.80
2022-11-19T15:28:45.204Z,19.98
2022-11-19T15:34:19.152Z,21.83
2022-11-19T15:39:32.053Z,23.17
2022-11-19T15:44:37.318Z,34.97
2022-11-19T15:49:42.950Z,25.83
2022-11-19T15:54:44.826Z,22.67
2022-11-19T15:59:51.954Z,34.22
2022-11-19T16:04:53.885Z,34.35
2022-11-19T16:09:56.348Z,36.17
2022-11-19T16:15:16.936Z,36.35
2022-11-19T16:20:21.140Z,42.35
2022-11-19T16:25:27.706Z,27.65
2022-11-19T16:30:38.284Z,35.47
2022-11-19T16:35:40.153Z,55.97
2022-11-19T16:41:01.770Z,78.63
2022-11-19T16:46:05.772Z,201.43
2022-11-19T16:51:38.397Z,45.78
2022-11-19T16:56:44.043Z,24.52
2022-11-19T17:01:56.251Z,32.22
2022-11-19T17:06:59.485Z,36.35
2022-11-19T17:12:19.878Z,26.60
2022-11-19T17:17:39.487Z,26.63
2022-11-19T17:22:42.251Z,37.20
2022-11-19T17:27:44.768Z,34.17
2022-11-19T17:32:53.789Z,33.13
2022-11-19T17:37:56.855Z,33.20
2022-11-19T17:43:17.176Z,32.03
2022-11-19T17:48:25.335Z,47.17
2022-11-19T17:53:27.340Z,44.55
2022-11-19T17:58:29.363Z,64.90
2022-11-19T18:03:31.475Z,86.45
2022-11-19T18:08:35.151Z,65.07
2022-11-19T18:13:37.361Z,42.22
2022-11-19T18:18:39.463Z,51.42
2022-11-19T18:23:42.426Z,37.53
2022-11-19T18:28:48.843Z,52.65
2022-11-19T18:33:52.326Z,35.80
2022-11-19T18:38:56.000Z,32.25
2022-11-19T18:44:18.242Z,20.08
2022-11-19T18:49:20.221Z,17.40
2022-11-19T18:54:22.368Z,43.35
2022-11-19T18:59:24.611Z,22.30
2022-11-19T19:04:26.831Z,20.50
2022-11-19T19:09:28.961Z,20.48
2022-11-19T19:14:30.905Z,18.98
2022-11-19T19:19:32.734Z,20.65
2022-11-19T19:24:34.881Z,35.83
2022-11-19T19:29:37.413Z,40.10
2022-11-19T19:34:39.291Z,28.70
2022-11-19T19:39:41.328Z,47.90
2022-11-19T19:44:43.502Z,47.45
2022-11-19T19:49:45.325Z,36.30
2022-11-19T19:54:47.146Z,29.05
2022-11-19T19:59:49.018Z,25.63
2022-11-19T20:04:50.897Z,24.98
2022-11-19T20:09:52.717Z,21.73
2022-11-19T20:14:54.580Z,24.50
2022-11-19T20:19:56.405Z,22.88
2022-11-19T20:24:58.763Z,24.05
2022-11-19T20:30:00.834Z,21.35
2022-11-19T20:35:03.143Z,21.15
2022-11-19T20:40:05.437Z,26.95
2022-11-19T20:45:08.392Z,24.42
2022-11-19T20:50:10.623Z,23.55
2022-11-19T20:55:12.444Z,29.52
2022-11-19T21:00:15.642Z,29.70
2022-11-19T21:05:17.571Z,30.83
2022-11-19T21:10:19.462Z,33.53
2022-11-19T21:15:21.296Z,32.72
2022-11-19T21:20:23.299Z,26.77
2022-11-19T21:25:25.306Z,24.17
2022-11-19T21:30:27.145Z,22.27
2022-11-19T21:35:29.061Z,25.05
2022-11-19T21:40:30.904Z,34.20
2022-11-19T21:45:33.001Z,24.92
2022-11-19T21:50:37.806Z,24.60
2022-11-19T21:55:43.111Z,24.42
2022-11-19T22:00:47.021Z,27.92
2022-11-19T22:06:08.803Z,25.60
2022-11-19T22:11:30.064Z,21.70
2022-11-19T22:16:35.747Z,26.88
2022-11-19T22:21:38.053Z,29.92
2022-11-19T22:26:39.858Z,31.85
2022-11-19T22:31:41.713Z,31.90
2022-11-19T22:36:43.565Z,28.58
2022-11-19T22:41:45.373Z,39.80
2022-11-19T22:46:47.317Z,29.27
2022-11-19T22:51:49.432Z,26.08
2022-11-19T22:56:51.255Z,31.65
2022-11-19T23:01:53.121Z,30.67
2022-11-19T23:06:54.995Z,25.58
2022-11-19T23:12:15.592Z,26.90
2022-11-19T23:17:17.418Z,23.92
2022-11-19T23:22:19.310Z,20.45
2022-11-19T23:27:22.391Z,18.38
2022-11-19T23:32:24.297Z,20.17
2022-11-19T23:37:26.204Z,18.15
2022-11-19T23:42:28.008Z,18.80
2022-11-19T23:47:29.958Z,19.70
2022-11-19T23:52:31.856Z,19.48
2022-11-19T23:57:33.662Z,19.00
